Time;durP1;ratioP1;P1;durP2;ratioP2;P2;SDS_P1;SDS_P2;PMS_P1;PMS_P2;Temp;Humidity;BMP_temperature;BMP_pressure;BME280_temperature;BME280_humidity;BME280_pressure;Samples;Min_cycle;Max_cycle;Signal;HPM_P1;HPM_P2
2023/06/13 00:01:49;;;;;;;90.45;64.18;;;;;;;;;;5075767;28;20030;-68
2023/06/13 00:04:23;;;;;;;84.00;62.85;;;;;;;;;;5074516;28;20032;-69
2023/06/13 00:06:53;;;;;;;92.53;64.22;;;;;;;;;;5075638;28;20020;-67
2023/06/13 00:09:19;;;;;;;88.25;62.88;;;;;;;;;;5075915;28;20035;-68
2023/06/13 00:11:49;;;;;;;92.18;65.18;;;;;;;;;;5074784;28;20017;-68
2023/06/13 00:14:16;;;;;;;92.97;63.88;;;;;;;;;;5074851;28;20034;-69
2023/06/13 00:16:44;;;;;;;88.50;65.00;;;;;;;;;;5075499;28;20028;-70
2023/06/13 00:19:11;;;;;;;92.75;62.50;;;;;;;;;;5075443;28;20094;-68
2023/06/13 00:21:38;;;;;;;88.28;64.22;;;;;;;;;;5075254;28;20020;-68
2023/06/13 00:24:05;;;;;;;99.65;65.20;;;;;;;;;;5073950;28;20565;-68
2023/06/13 00:26:32;;;;;;;80.97;61.97;;;;;;;;;;5075311;28;20042;-68
2023/06/13 00:28:59;;;;;;;90.78;64.13;;;;;;;;;;5075013;28;20017;-69
2023/06/13 00:31:28;;;;;;;94.43;65.95;;;;;;;;;;5075108;28;20049;-69
2023/06/13 00:33:57;;;;;;;98.75;66.35;;;;;;;;;;5073936;28;20040;-69
2023/06/13 00:36:25;;;;;;;93.65;66.05;;;;;;;;;;5074982;28;20539;-69
2023/06/13 00:38:53;;;;;;;95.55;68.78;;;;;;;;;;5074890;28;20059;-69
2023/06/13 00:41:20;;;;;;;99.03;67.55;;;;;;;;;;5074877;28;20052;-69
2023/06/13 00:43:46;;;;;;;94.60;65.43;;;;;;;;;;5074843;28;20066;-68
2023/06/13 00:46:17;;;;;;;107.95;68.28;;;;;;;;;;5074808;28;20033;-68
2023/06/13 00:48:44;;;;;;;99.22;68.25;;;;;;;;;;5074718;28;20052;-67
2023/06/13 00:51:12;;;;;;;94.80;66.43;;;;;;;;;;5074679;28;20056;-69
2023/06/13 00:53:40;;;;;;;93.20;68.20;;;;;;;;;;5074638;28;20520;-70
2023/06/13 00:56:07;;;;;;;95.63;67.43;;;;;;;;;;5074525;28;20043;-69
2023/06/13 00:58:36;;;;;;;98.05;70.75;;;;;;;;;;5074765;28;20029;-69
2023/06/13 01:01:02;;;;;;;95.00;69.60;;;;;;;;;;5074481;28;20031;-69
2023/06/13 01:03:29;;;;;;;96.68;67.88;;;;;;;;;;5074538;28;20016;-72
2023/06/13 01:05:56;;;;;;;95.32;67.25;;;;;;;;;;5074295;28;20103;-69
2023/06/13 01:08:25;;;;;;;111.57;83.38;;;;;;;;;;5074394;28;20020;-70
2023/06/13 01:11:12;;;;;;;91.88;67.45;;;;;;;;;;5074158;28;20547;-70
2023/06/13 01:14:01;;;;;;;88.50;66.10;;;;;;;;;;5074201;28;20035;-69
2023/06/13 01:16:28;;;;;;;86.22;65.30;;;;;;;;;;5074031;28;20017;-71
2023/06/13 01:18:57;;;;;;;88.13;64.32;;;;;;;;;;5074153;28;20054;-71
2023/06/13 01:21:24;;;;;;;147.00;118.45;;;;;;;;;;5074275;28;20066;-70
2023/06/13 01:23:58;;;;;;;83.07;63.08;;;;;;;;;;5074054;28;20099;-69
2023/06/13 01:26:45;;;;;;;106.20;78.30;;;;;;;;;;5073938;28;20032;-69
2023/06/13 01:29:13;;;;;;;94.85;63.72;;;;;;;;;;5031901;28;20178;-70
2023/06/13 01:31:41;;;;;;;82.25;58.45;;;;;;;;;;5032048;28;20410;-69
2023/06/13 01:34:08;;;;;;;85.78;58.00;;;;;;;;;;5031593;28;20034;-69
2023/06/13 01:36:36;;;;;;;90.93;68.82;;;;;;;;;;5031802;28;20033;-68
2023/06/13 01:39:02;;;;;;;100.13;69.90;;;;;;;;;;5032088;28;20100;-68
2023/06/13 01:41:29;;;;;;;118.45;85.85;;;;;;;;;;5032134;28;20049;-68
2023/06/13 01:43:56;;;;;;;90.45;66.30;;;;;;;;;;5031680;28;20030;-68
2023/06/13 01:46:28;;;;;;;81.68;62.55;;;;;;;;;;5031954;28;20466;-69
2023/06/13 01:48:54;;;;;;;;;;;;;;;;;;5032772;28;20438;-68
2023/06/13 01:51:41;;;;;;;85.05;62.50;;;;;;;;;;5032107;28;19912;-68
2023/06/13 01:54:11;;;;;;;79.32;59.55;;;;;;;;;;4953919;29;20401;-68
2023/06/13 01:56:41;;;;;;;84.50;63.13;;;;;;;;;;4954085;29;20045;-69
2023/06/13 01:59:08;;;;;;;74.38;56.47;;;;;;;;;;4954247;29;20077;-69
2023/06/13 02:01:38;;;;;;;69.13;51.17;;;;;;;;;;4953757;29;20027;-69
2023/06/13 02:04:05;;;;;;;59.58;46.45;;;;;;;;;;4954163;29;20055;-69
2023/06/13 02:06:35;;;;;;;55.90;43.13;;;;;;;;;;4990334;28;20040;-69
2023/06/13 02:09:03;;;;;;;57.28;42.13;;;;;;;;;;5012178;28;20052;-68
2023/06/13 02:11:30;;;;;;;51.67;41.10;;;;;;;;;;5012227;28;20041;-68
2023/06/13 02:13:57;;;;;;;49.42;39.92;;;;;;;;;;5012225;28;20122;-69
2023/06/13 02:16:25;;;;;;;49.15;35.35;;;;;;;;;;5011953;28;20030;-69
2023/06/13 02:18:53;;;;;;;47.83;36.10;;;;;;;;;;5012240;28;20030;-69
2023/06/13 02:21:19;;;;;;;45.58;35.53;;;;;;;;;;5011906;28;20448;-68
2023/06/13 02:23:46;;;;;;;46.30;35.42;;;;;;;;;;5010896;28;20049;-68
2023/06/13 02:26:13;;;;;;;53.55;34.50;;;;;;;;;;5011605;28;20180;-68
2023/06/13 02:28:40;;;;;;;46.13;32.03;;;;;;;;;;5011498;28;20145;-69
2023/06/13 02:31:07;;;;;;;39.17;31.52;;;;;;;;;;5040444;28;20059;-67
2023/06/13 02:33:34;;;;;;;38.63;29.17;;;;;;;;;;5073179;28;20036;-66
2023/06/13 02:36:01;;;;;;;339.00;227.23;;;;;;;;;;5073016;28;20051;-66
2023/06/13 02:38:28;;;;;;;86.78;60.83;;;;;;;;;;5072814;28;20028;-65
2023/06/13 02:40:54;;;;;;;169.70;105.97;;;;;;;;;;5073366;28;20032;-66
2023/06/13 02:43:22;;;;;;;61.47;44.25;;;;;;;;;;5073136;28;20052;-67
2023/06/13 02:45:49;;;;;;;72.15;49.33;;;;;;;;;;5072178;28;20021;-69
2023/06/13 02:48:16;;;;;;;94.75;63.75;;;;;;;;;;5076134;28;20028;-71
2023/06/13 02:50:43;;;;;;;45.95;32.40;;;;;;;;;;5076834;28;20539;-69
2023/06/13 02:53:11;;;;;;;40.72;30.52;;;;;;;;;;5076585;28;20025;-70
2023/06/13 02:55:38;;;;;;;40.35;25.83;;;;;;;;;;5076604;28;20021;-70
2023/06/13 02:58:05;;;;;;;37.22;22.85;;;;;;;;;;5076712;28;20020;-72
2023/06/13 03:00:31;;;;;;;38.70;24.88;;;;;;;;;;5076694;28;20466;-70
2023/06/13 03:03:01;;;;;;;38.47;25.45;;;;;;;;;;5076775;28;20024;-69
2023/06/13 03:05:28;;;;;;;45.38;25.92;;;;;;;;;;5076600;28;20028;-69
2023/06/13 03:07:56;;;;;;;32.65;20.50;;;;;;;;;;5076506;28;20027;-69
2023/06/13 03:10:23;;;;;;;35.13;20.05;;;;;;;;;;5076795;28;20082;-70
2023/06/13 03:12:50;;;;;;;32.85;20.35;;;;;;;;;;5076869;28;20024;-70
2023/06/13 03:15:17;;;;;;;32.80;20.77;;;;;;;;;;5076448;28;20024;-69
2023/06/13 03:17:45;;;;;;;33.03;20.17;;;;;;;;;;5076588;28;20031;-69
2023/06/13 03:20:11;;;;;;;29.33;21.33;;;;;;;;;;5076489;28;20048;-67
2023/06/13 03:22:38;;;;;;;37.88;21.67;;;;;;;;;;5076424;28;20012;-69
2023/06/13 03:25:05;;;;;;;31.88;20.55;;;;;;;;;;5076462;28;20032;-70
2023/06/13 03:27:33;;;;;;;32.58;22.58;;;;;;;;;;5076409;28;20031;-69
2023/06/13 03:30:00;;;;;;;37.00;23.95;;;;;;;;;;5076224;28;20108;-71
2023/06/13 03:32:26;;;;;;;39.13;24.65;;;;;;;;;;5076182;28;20052;-71
2023/06/13 03:34:53;;;;;;;42.25;24.58;;;;;;;;;;5076181;28;20017;-71
2023/06/13 03:37:20;;;;;;;31.02;22.30;;;;;;;;;;5076150;28;20019;-71
2023/06/13 03:39:47;;;;;;;36.63;24.38;;;;;;;;;;5075949;28;20025;-72
2023/06/13 03:42:13;;;;;;;30.50;19.88;;;;;;;;;;5076160;28;20025;-73
2023/06/13 03:44:46;;;;;;;31.35;18.70;;;;;;;;;;5076200;28;20025;-69
2023/06/13 03:47:13;;;;;;;39.50;21.25;;;;;;;;;;5076199;28;20021;-69
2023/06/13 03:49:40;;;;;;;27.30;20.20;;;;;;;;;;5075851;28;20028;-68
2023/06/13 03:52:07;;;;;;;31.05;18.17;;;;;;;;;;5076277;28;20028;-69
2023/06/13 03:54:34;;;;;;;23.73;15.55;;;;;;;;;;5075965;28;20097;-70
2023/06/13 03:57:01;;;;;;;23.50;15.13;;;;;;;;;;5075730;28;20028;-70
2023/06/13 03:59:27;;;;;;;22.77;15.57;;;;;;;;;;5075471;28;20098;-68
2023/06/13 04:01:54;;;;;;;31.55;16.95;;;;;;;;;;5068706;28;20131;-67
2023/06/13 04:04:21;;;;;;;24.83;16.98;;;;;;;;;;5055703;28;20429;-65
2023/06/13 04:06:49;;;;;;;30.55;19.70;;;;;;;;;;5055638;28;20021;-67
2023/06/13 04:09:15;;;;;;;30.70;17.77;;;;;;;;;;5055496;28;20029;-68
2023/06/13 04:11:42;;;;;;;30.02;17.10;;;;;;;;;;5055769;28;20055;-71
2023/06/13 04:14:09;;;;;;;26.27;16.52;;;;;;;;;;5057950;28;20013;-68
2023/06/13 04:16:36;;;;;;;25.05;16.42;;;;;;;;;;5063573;28;20104;-69
2023/06/13 04:19:02;;;;;;;26.92;16.33;;;;;;;;;;5065146;28;20024;-65
2023/06/13 04:21:29;;;;;;;23.00;9.80;;;;;;;;;;5065007;28;20025;-67
2023/06/13 04:23:56;;;;;;;26.60;11.43;;;;;;;;;;5063152;28;20029;-69
2023/06/13 04:26:23;;;;;;;27.77;12.02;;;;;;;;;;5065138;28;20048;-68
2023/06/13 04:28:50;;;;;;;22.58;13.20;;;;;;;;;;5065431;28;20025;-69
2023/06/13 04:31:17;;;;;;;27.67;12.38;;;;;;;;;;5067168;28;20095;-73
2023/06/13 04:33:45;;;;;;;19.55;12.00;;;;;;;;;;5065751;28;20072;-75
2023/06/13 04:36:13;;;;;;;33.85;13.00;;;;;;;;;;5062974;28;20013;-70
2023/06/13 04:38:40;;;;;;;27.13;12.88;;;;;;;;;;5064031;28;20069;-70
2023/06/13 04:41:10;;;;;;;26.10;11.38;;;;;;;;;;5064751;28;20440;-70
2023/06/13 04:43:41;;;;;;;26.50;13.43;;;;;;;;;;5063335;28;20032;-71
2023/06/13 04:46:10;;;;;;;24.15;13.85;;;;;;;;;;5063008;28;20104;-71
2023/06/13 04:48:37;;;;;;;23.95;14.02;;;;;;;;;;5063157;28;20025;-74
2023/06/13 04:51:09;;;;;;;24.42;13.65;;;;;;;;;;5063350;28;20127;-72
2023/06/13 04:53:37;;;;;;;25.87;15.67;;;;;;;;;;5062950;28;20021;-71
2023/06/13 04:56:06;;;;;;;26.67;15.35;;;;;;;;;;5063097;28;20031;-71
2023/06/13 04:58:33;;;;;;;24.80;15.77;;;;;;;;;;5064387;28;20174;-72
2023/06/13 05:00:59;;;;;;;28.00;16.55;;;;;;;;;;5063078;28;20419;-72
2023/06/13 05:03:27;;;;;;;26.95;13.60;;;;;;;;;;5066799;28;20017;-72
2023/06/13 05:05:53;;;;;;;25.00;14.55;;;;;;;;;;5064983;28;20371;-71
2023/06/13 05:08:21;;;;;;;32.85;15.77;;;;;;;;;;5063728;28;20107;-72
2023/06/13 05:10:48;;;;;;;23.98;12.48;;;;;;;;;;5063370;28;20106;-72
2023/06/13 05:13:15;;;;;;;20.63;12.63;;;;;;;;;;5062232;28;20017;-72
2023/06/13 05:15:42;;;;;;;24.30;13.13;;;;;;;;;;5063316;28;20060;-71
2023/06/13 05:18:12;;;;;;;28.40;14.45;;;;;;;;;;5063998;28;20568;-71
2023/06/13 05:20:39;;;;;;;23.05;14.45;;;;;;;;;;5062393;28;20032;-72
2023/06/13 05:23:07;;;;;;;28.65;15.57;;;;;;;;;;5062676;28;20114;-72
2023/06/13 05:25:34;;;;;;;27.85;15.70;;;;;;;;;;5064061;28;20029;-72
2023/06/13 05:28:02;;;;;;;29.17;15.50;;;;;;;;;;5065776;28;20020;-73
2023/06/13 05:30:29;;;;;;;28.00;16.60;;;;;;;;;;5066513;28;20577;-71
2023/06/13 05:32:56;;;;;;;27.52;14.68;;;;;;;;;;5065183;28;20057;-71
2023/06/13 05:35:23;;;;;;;27.83;16.98;;;;;;;;;;5060535;28;20479;-72
2023/06/13 05:37:50;;;;;;;28.50;16.42;;;;;;;;;;5066666;28;20547;-72
2023/06/13 05:40:20;;;;;;;27.05;16.02;;;;;;;;;;5064275;28;20025;-73
2023/06/13 05:42:47;;;;;;;30.15;15.25;;;;;;;;;;5057267;28;20482;-74
2023/06/13 05:45:14;;;;;;;23.52;15.35;;;;;;;;;;5056952;28;20120;-74
2023/06/13 05:47:40;;;;;;;24.55;14.82;;;;;;;;;;5057141;28;20025;-73
2023/06/13 05:50:07;;;;;;;24.73;13.68;;;;;;;;;;5059964;28;20013;-73
2023/06/13 05:52:34;;;;;;;24.55;14.15;;;;;;;;;;5063566;28;20023;-73
2023/06/13 05:55:03;;;;;;;22.25;12.68;;;;;;;;;;5062180;28;20098;-72
2023/06/13 05:57:39;;;;;;;21.80;11.93;;;;;;;;;;5061366;28;20031;-72
2023/06/13 06:00:08;;;;;;;26.63;13.55;;;;;;;;;;5062955;28;20053;-72
2023/06/13 06:02:35;;;;;;;21.38;13.23;;;;;;;;;;5064101;28;20056;-76
2023/06/13 06:05:03;;;;;;;20.90;13.02;;;;;;;;;;5065214;28;20056;-73
2023/06/13 06:07:31;;;;;;;20.65;12.32;;;;;;;;;;5063511;28;20036;-71
2023/06/13 06:09:58;;;;;;;21.15;12.15;;;;;;;;;;5061616;28;20377;-73
2023/06/13 06:12:25;;;;;;;28.60;13.02;;;;;;;;;;5062225;28;20020;-73
2023/06/13 06:14:51;;;;;;;23.95;11.50;;;;;;;;;;5063175;28;20016;-72
2023/06/13 06:17:20;;;;;;;22.40;11.20;;;;;;;;;;5061669;28;20023;-73
2023/06/13 06:19:46;;;;;;;17.02;9.45;;;;;;;;;;5061711;28;20024;-71
2023/06/13 06:22:13;;;;;;;21.70;9.00;;;;;;;;;;5063132;28;20009;-73
2023/06/13 06:24:40;;;;;;;17.80;7.88;;;;;;;;;;5061776;28;20037;-71
2023/06/13 06:27:07;;;;;;;16.92;7.65;;;;;;;;;;5061761;28;20028;-72
2023/06/13 06:29:33;;;;;;;21.38;8.77;;;;;;;;;;5063109;28;20020;-72
2023/06/13 06:32:00;;;;;;;24.60;8.88;;;;;;;;;;5064839;28;20055;-71
2023/06/13 06:34:27;;;;;;;21.77;9.07;;;;;;;;;;5062911;28;20024;-72
2023/06/13 06:36:54;;;;;;;22.20;8.02;;;;;;;;;;5063118;28;20091;-72
2023/06/13 06:39:21;;;;;;;18.40;8.02;;;;;;;;;;5061557;28;20021;-71
2023/06/13 06:41:48;;;;;;;16.30;7.53;;;;;;;;;;5064114;28;20142;-72
2023/06/13 06:44:15;;;;;;;17.80;7.47;;;;;;;;;;5063350;28;20013;-71
2023/06/13 06:46:41;;;;;;;18.45;8.18;;;;;;;;;;5062020;28;20036;-72
2023/06/13 06:49:08;;;;;;;20.65;8.05;;;;;;;;;;5062547;28;20358;-72
2023/06/13 06:51:35;;;;;;;22.83;10.95;;;;;;;;;;5061137;28;20029;-73
2023/06/13 06:54:02;;;;;;;20.95;8.30;;;;;;;;;;5066300;28;20376;-72
2023/06/13 06:56:29;;;;;;;14.93;7.35;;;;;;;;;;5061162;28;20025;-72
2023/06/13 06:58:55;;;;;;;18.25;8.32;;;;;;;;;;5062935;28;20016;-73
2023/06/13 07:01:22;;;;;;;16.85;8.15;;;;;;;;;;5061709;28;20096;-72
2023/06/13 07:03:49;;;;;;;17.45;8.88;;;;;;;;;;5060983;28;20477;-72
2023/06/13 07:06:15;;;;;;;18.23;6.93;;;;;;;;;;5063080;28;20036;-71
2023/06/13 07:08:42;;;;;;;10.02;5.93;;;;;;;;;;5061535;28;20021;-71
2023/06/13 07:11:09;;;;;;;11.32;6.28;;;;;;;;;;5060902;28;20021;-72
2023/06/13 07:13:36;;;;;;;8.57;4.00;;;;;;;;;;5063014;28;20499;-72
2023/06/13 07:16:02;;;;;;;13.25;3.85;;;;;;;;;;5061105;28;20017;-72
2023/06/13 07:18:29;;;;;;;6.78;2.90;;;;;;;;;;5065983;28;20100;-73
2023/06/13 07:20:56;;;;;;;5.90;3.00;;;;;;;;;;5060546;28;20527;-72
2023/06/13 07:23:23;;;;;;;5.57;3.10;;;;;;;;;;5061809;28;20039;-69
2023/06/13 07:25:50;;;;;;;6.68;2.95;;;;;;;;;;5062719;28;20079;-71
2023/06/13 07:28:17;;;;;;;4.70;2.80;;;;;;;;;;5060602;28;20020;-72
2023/06/13 07:30:44;;;;;;;5.38;3.08;;;;;;;;;;5061684;28;20032;-70
2023/06/13 07:33:11;;;;;;;6.05;3.83;;;;;;;;;;5063302;28;20497;-72
2023/06/13 07:35:38;;;;;;;6.78;2.20;;;;;;;;;;5065085;28;20122;-69
2023/06/13 07:38:05;;;;;;;3.40;3.00;;;;;;;;;;5068178;28;20051;-70
2023/06/13 07:40:32;;;;;;;6.35;3.38;;;;;;;;;;5063879;28;20051;-71
2023/06/13 07:42:58;;;;;;;5.72;2.70;;;;;;;;;;5065754;28;20087;-72
2023/06/13 07:45:25;;;;;;;6.20;3.55;;;;;;;;;;5065162;28;20024;-71
2023/06/13 07:47:52;;;;;;;11.80;3.95;;;;;;;;;;5064015;28;20035;-70
2023/06/13 07:50:21;;;;;;;7.00;3.78;;;;;;;;;;5072546;28;20104;-70
2023/06/13 07:52:48;;;;;;;11.43;4.20;;;;;;;;;;5065255;28;20028;-71
2023/06/13 07:55:15;;;;;;;11.65;4.53;;;;;;;;;;5058449;28;20174;-70
2023/06/13 07:57:41;;;;;;;12.63;5.55;;;;;;;;;;5068405;28;20115;-72
2023/06/13 08:00:15;;;;;;;17.33;5.72;;;;;;;;;;5066439;28;20016;-71
2023/06/13 08:02:42;;;;;;;15.65;6.40;;;;;;;;;;5057705;28;20017;-70
2023/06/13 08:05:10;;;;;;;17.17;6.93;;;;;;;;;;5067005;28;20514;-72
2023/06/13 08:07:36;;;;;;;17.35;7.18;;;;;;;;;;5076178;28;20032;-70
2023/06/13 08:10:03;;;;;;;15.85;6.35;;;;;;;;;;5075669;28;20020;-70
2023/06/13 08:12:30;;;;;;;20.23;6.95;;;;;;;;;;5072503;28;20103;-71
2023/06/13 08:14:57;;;;;;;14.27;5.95;;;;;;;;;;5063806;28;20039;-71
2023/06/13 08:17:25;;;;;;;13.02;4.07;;;;;;;;;;5065911;28;20025;-69
2023/06/13 08:19:52;;;;;;;21.60;11.05;;;;;;;;;;5064325;28;20384;-70
2023/06/13 08:22:19;;;;;;;19.23;7.50;;;;;;;;;;5063771;28;20043;-69
2023/06/13 08:24:46;;;;;;;14.52;5.78;;;;;;;;;;5064973;28;20020;-69
2023/06/13 08:27:16;;;;;;;15.40;4.95;;;;;;;;;;5065129;28;20466;-69
2023/06/13 08:29:43;;;;;;;13.40;5.18;;;;;;;;;;5063793;28;20481;-69
2023/06/13 08:32:10;;;;;;;18.40;9.50;;;;;;;;;;5065019;28;20016;-69
2023/06/13 08:34:37;;;;;;;22.77;15.73;;;;;;;;;;5065411;28;20053;-69
2023/06/13 08:37:04;;;;;;;31.85;19.20;;;;;;;;;;5064075;28;20498;-67
2023/06/13 08:39:31;;;;;;;24.35;12.55;;;;;;;;;;5065804;28;20036;-69
2023/06/13 08:41:58;;;;;;;26.25;15.95;;;;;;;;;;5063221;28;20029;-69
2023/06/13 08:44:26;;;;;;;27.85;11.77;;;;;;;;;;5064034;28;20040;-67
2023/06/13 08:46:52;;;;;;;28.83;13.52;;;;;;;;;;5064720;28;20151;-69
2023/06/13 08:49:19;;;;;;;33.85;16.75;;;;;;;;;;5062999;28;20462;-69
2023/06/13 08:51:47;;;;;;;21.27;11.18;;;;;;;;;;5064564;28;20032;-70
2023/06/13 08:54:14;;;;;;;31.95;15.05;;;;;;;;;;5064715;28;20013;-69
2023/06/13 08:56:41;;;;;;;38.78;20.95;;;;;;;;;;5063334;28;20493;-68
2023/06/13 08:59:18;;;;;;;40.50;20.80;;;;;;;;;;5064394;28;20024;-68
2023/06/13 09:01:45;;;;;;;31.52;16.10;;;;;;;;;;5063298;28;20028;-69
2023/06/13 09:04:12;;;;;;;22.27;11.52;;;;;;;;;;5063789;28;20016;-69
2023/06/13 09:06:40;;;;;;;13.65;6.03;;;;;;;;;;5065041;28;20059;-69
2023/06/13 09:09:07;;;;;;;16.77;8.00;;;;;;;;;;5062335;28;20030;-69
2023/06/13 09:11:35;;;;;;;21.05;7.88;;;;;;;;;;5064864;28;20064;-72
2023/06/13 09:14:03;;;;;;;21.73;6.93;;;;;;;;;;5064742;28;20078;-67
2023/06/13 09:16:31;;;;;;;21.92;7.93;;;;;;;;;;5063452;28;20021;-71
2023/06/13 09:18:59;;;;;;;19.30;8.25;;;;;;;;;;5062547;28;20025;-71
2023/06/13 09:21:26;;;;;;;25.63;7.32;;;;;;;;;;5061971;28;20469;-70
2023/06/13 09:23:57;;;;;;;20.83;8.10;;;;;;;;;;5068345;28;20039;-69
2023/06/13 09:26:26;;;;;;;22.52;9.77;;;;;;;;;;5057036;28;20087;-71
2023/06/13 09:28:53;;;;;;;14.75;7.20;;;;;;;;;;5054513;28;20458;-74
2023/06/13 09:31:20;;;;;;;19.42;7.88;;;;;;;;;;5062538;28;20037;-71
2023/06/13 09:33:46;;;;;;;14.43;7.00;;;;;;;;;;5063793;28;20124;-70
2023/06/13 09:36:13;;;;;;;14.00;6.00;;;;;;;;;;5063490;28;20052;-70
2023/06/13 09:38:41;;;;;;;13.25;6.38;;;;;;;;;;5062374;28;20029;-71
2023/06/13 09:41:08;;;;;;;21.58;8.65;;;;;;;;;;5063948;28;20019;-70
2023/06/13 09:43:35;;;;;;;17.35;7.32;;;;;;;;;;5063826;28;20160;-70
2023/06/13 09:46:02;;;;;;;16.27;6.60;;;;;;;;;;5061858;28;20024;-69
2023/06/13 09:48:29;;;;;;;19.08;8.80;;;;;;;;;;5063199;28;20025;-68
2023/06/13 09:50:55;;;;;;;18.70;8.20;;;;;;;;;;5063500;28;20028;-69
2023/06/13 09:53:22;;;;;;;15.15;7.72;;;;;;;;;;5061866;28;20039;-69
2023/06/13 09:55:49;;;;;;;18.88;8.75;;;;;;;;;;5063334;28;20393;-69
2023/06/13 09:58:16;;;;;;;18.00;7.70;;;;;;;;;;5065005;28;20025;-70
2023/06/13 10:00:43;;;;;;;15.90;7.80;;;;;;;;;;5063888;28;20370;-70
2023/06/13 10:03:10;;;;;;;19.50;8.20;;;;;;;;;;5058610;28;20028;-70
2023/06/13 10:05:36;;;;;;;25.63;10.95;;;;;;;;;;5070876;28;20023;-70
2023/06/13 10:08:03;;;;;;;26.83;11.27;;;;;;;;;;5073288;28;20020;-69
2023/06/13 10:10:30;;;;;;;37.50;16.13;;;;;;;;;;5073517;28;20028;-71
2023/06/13 10:12:59;;;;;;;96.30;44.10;;;;;;;;;;5073464;28;20048;-70
2023/06/13 10:15:34;;;;;;;86.82;43.00;;;;;;;;;;5073308;28;20074;-69
2023/06/13 10:18:03;;;;;;;54.45;29.55;;;;;;;;;;5065351;28;20024;-70
2023/06/13 10:20:30;;;;;;;44.22;24.13;;;;;;;;;;5064428;28;20027;-70
2023/06/13 10:22:57;;;;;;;33.33;18.83;;;;;;;;;;5062646;28;20044;-68
2023/06/13 10:25:27;;;;;;;40.55;22.10;;;;;;;;;;5063410;28;20033;-72
2023/06/13 10:27:55;;;;;;;41.70;20.27;;;;;;;;;;5061879;28;20028;-70
2023/06/13 10:30:31;;;;;;;51.53;26.50;;;;;;;;;;5061782;28;20024;-68
2023/06/13 10:33:12;;;;;;;56.20;28.60;;;;;;;;;;5062408;28;20017;-69
2023/06/13 10:35:43;;;;;;;84.28;47.90;;;;;;;;;;5062650;28;20033;-69
2023/06/13 10:38:14;;;;;;;83.97;58.15;;;;;;;;;;5061813;28;20021;-68
2023/06/13 10:40:45;;;;;;;57.15;31.95;;;;;;;;;;5073081;28;20473;-70
2023/06/13 10:43:31;;;;;;;41.60;21.08;;;;;;;;;;5073457;28;20448;-69
2023/06/13 10:45:59;;;;;;;36.40;18.67;;;;;;;;;;5068440;28;20025;-70
2023/06/13 10:48:35;;;;;;;34.53;16.30;;;;;;;;;;5053013;28;20218;-70
2023/06/13 10:51:02;;;;;;;50.58;25.20;;;;;;;;;;5056996;28;20108;-67
2023/06/13 10:53:30;;;;;;;42.53;19.65;;;;;;;;;;5064406;28;20393;-67
2023/06/13 10:56:00;;;;;;;44.85;21.08;;;;;;;;;;5061885;28;20025;-69
2023/06/13 10:58:28;;;;;;;45.20;20.08;;;;;;;;;;5064021;28;20020;-70
2023/06/13 11:00:55;;;;;;;40.75;19.33;;;;;;;;;;5064251;28;20490;-69
2023/06/13 11:03:29;;;;;;;54.47;25.90;;;;;;;;;;5062692;28;20548;-68
2023/06/13 11:05:55;;;;;;;70.13;31.20;;;;;;;;;;5061811;28;20096;-68
2023/06/13 11:08:24;;;;;;;53.45;25.25;;;;;;;;;;5062462;28;20085;-69
2023/06/13 11:10:51;;;;;;;49.13;21.98;;;;;;;;;;5064946;28;20032;-69
2023/06/13 11:13:21;;;;;;;51.90;22.08;;;;;;;;;;5064443;28;20027;-67
2023/06/13 11:15:50;;;;;;;49.75;22.08;;;;;;;;;;5066116;28;20020;-68
2023/06/13 11:18:19;;;;;;;48.17;23.55;;;;;;;;;;5065051;28;20029;-72
2023/06/13 11:20:49;;;;;;;35.45;15.38;;;;;;;;;;5064151;28;20024;-68
2023/06/13 11:23:18;;;;;;;34.60;14.52;;;;;;;;;;5064964;28;20039;-70
2023/06/13 11:25:48;;;;;;;32.53;13.32;;;;;;;;;;5069351;28;20039;-69
2023/06/13 11:28:15;;;;;;;36.58;15.07;;;;;;;;;;5065140;28;20259;-68
2023/06/13 11:30:47;;;;;;;42.30;19.75;;;;;;;;;;5065987;28;20478;-68
2023/06/13 11:33:14;;;;;;;88.80;49.33;;;;;;;;;;5064188;28;20048;-68
2023/06/13 11:35:48;;;;;;;76.03;44.13;;;;;;;;;;5063953;28;20377;-68
2023/06/13 11:38:19;;;;;;;60.08;35.88;;;;;;;;;;5064604;28;20032;-68
2023/06/13 11:40:47;;;;;;;44.67;25.42;;;;;;;;;;5063603;28;20207;-69
2023/06/13 11:43:14;;;;;;;59.83;32.45;;;;;;;;;;5065098;28;20466;-68
2023/06/13 11:45:41;;;;;;;49.28;23.65;;;;;;;;;;5065546;28;20064;-70
2023/06/13 11:48:11;;;;;;;55.95;27.60;;;;;;;;;;5063924;28;20028;-68
2023/06/13 11:50:38;;;;;;;61.08;33.33;;;;;;;;;;5064746;28;20129;-69
2023/06/13 11:53:06;;;;;;;65.75;29.13;;;;;;;;;;5065686;28;20021;-68
2023/06/13 11:55:33;;;;;;;58.63;28.13;;;;;;;;;;5067029;28;20027;-66
2023/06/13 11:58:00;;;;;;;54.50;25.63;;;;;;;;;;5065507;28;20013;-66
2023/06/13 12:00:28;;;;;;;61.08;26.88;;;;;;;;;;5065424;28;20096;-67
2023/06/13 12:02:56;;;;;;;48.70;24.73;;;;;;;;;;5064296;28;20017;-66
2023/06/13 12:05:23;;;;;;;49.17;21.33;;;;;;;;;;5063611;28;20255;-67
2023/06/13 12:07:50;;;;;;;42.28;19.73;;;;;;;;;;5063330;28;20021;-67
2023/06/13 12:10:17;;;;;;;37.40;19.02;;;;;;;;;;5065097;28;20044;-67
2023/06/13 12:13:01;;;;;;;39.80;19.27;;;;;;;;;;5065875;28;20033;-67
2023/06/13 12:15:28;;;;;;;40.15;19.05;;;;;;;;;;5065568;28;20128;-69
2023/06/13 12:18:00;;;;;;;34.70;17.27;;;;;;;;;;5064516;28;20010;-66
2023/06/13 12:20:27;;;;;;;;;;;;;;;;;;5063611;28;20021;-67
2023/06/13 12:22:56;;;;;;;37.30;16.60;;;;;;;;;;5065242;28;20389;-66
2023/06/13 12:25:23;;;;;;;27.45;12.90;;;;;;;;;;5065840;28;20083;-67
2023/06/13 12:27:51;;;;;;;29.08;12.82;;;;;;;;;;5063313;28;20021;-70
2023/06/13 12:30:19;;;;;;;33.08;13.43;;;;;;;;;;5064372;28;20020;-67
2023/06/13 12:32:48;;;;;;;30.38;13.82;;;;;;;;;;5067065;28;20078;-68
2023/06/13 12:35:19;;;;;;;29.75;13.25;;;;;;;;;;5065680;28;20055;-68
2023/06/13 12:37:48;;;;;;;38.90;16.60;;;;;;;;;;5068278;28;20033;-67
2023/06/13 12:40:15;;;;;;;38.30;16.02;;;;;;;;;;5064884;28;20237;-68
2023/06/13 12:43:02;;;;;;;34.00;16.65;;;;;;;;;;5065295;28;20020;-67
2023/06/13 12:45:29;;;;;;;31.65;14.25;;;;;;;;;;4991055;28;20030;-69
2023/06/13 12:47:56;;;;;;;26.58;13.70;;;;;;;;;;4992433;28;20049;-67
2023/06/13 12:50:24;;;;;;;26.63;13.45;;;;;;;;;;4989938;28;20061;-66
2023/06/13 12:53:01;;;;;;;32.50;12.52;;;;;;;;;;4992592;28;20026;-67
2023/06/13 12:55:28;;;;;;;26.30;12.30;;;;;;;;;;4990519;28;20515;-68
2023/06/13 12:57:56;;;;;;;31.13;11.68;;;;;;;;;;4992588;28;20041;-69
2023/06/13 13:00:23;;;;;;;28.38;11.02;;;;;;;;;;4992559;28;20054;-67
2023/06/13 13:02:51;;;;;;;28.60;12.20;;;;;;;;;;4991319;28;20042;-69
2023/06/13 13:05:18;;;;;;;31.27;13.05;;;;;;;;;;4992291;28;20061;-68
2023/06/13 13:07:51;;;;;;;34.38;11.95;;;;;;;;;;4992537;28;20030;-68
2023/06/13 13:10:18;;;;;;;27.38;13.95;;;;;;;;;;4992406;28;20415;-69
2023/06/13 13:12:45;;;;;;;28.27;12.63;;;;;;;;;;4992237;28;20049;-68
2023/06/13 13:15:11;;;;;;;34.38;13.35;;;;;;;;;;4992099;28;20558;-68
2023/06/13 13:17:38;;;;;;;29.75;12.13;;;;;;;;;;4991970;28;20026;-67
2023/06/13 13:20:05;;;;;;;30.30;12.10;;;;;;;;;;4991964;28;20042;-68
2023/06/13 13:22:32;;;;;;;34.90;12.60;;;;;;;;;;5027336;28;20504;-68
2023/06/13 13:24:58;;;;;;;26.33;12.25;;;;;;;;;;5062380;28;20457;-69
2023/06/13 13:27:25;;;;;;;28.00;11.88;;;;;;;;;;5063742;28;20017;-68
2023/06/13 13:29:52;;;;;;;28.45;11.50;;;;;;;;;;5063384;28;20029;-68
2023/06/13 13:32:19;;;;;;;35.17;11.88;;;;;;;;;;5067204;28;20500;-67
2023/06/13 13:34:46;;;;;;;30.00;11.57;;;;;;;;;;5059285;28;20040;-66
2023/06/13 13:37:13;;;;;;;23.83;11.15;;;;;;;;;;5061847;28;20021;-66
2023/06/13 13:39:39;;;;;;;27.58;12.27;;;;;;;;;;5064400;28;20021;-67
2023/06/13 13:42:06;;;;;;;25.77;10.70;;;;;;;;;;5061838;28;20035;-67
2023/06/13 13:44:33;;;;;;;24.95;11.63;;;;;;;;;;5064727;28;20090;-68
2023/06/13 13:47:00;;;;;;;29.15;12.70;;;;;;;;;;5059298;28;20040;-68
2023/06/13 13:49:27;;;;;;;28.52;11.85;;;;;;;;;;5085864;22;20098;-68
2023/06/13 13:51:54;;;;;;;25.90;12.55;;;;;;;;;;5064643;28;20058;-69
2023/06/13 13:54:21;;;;;;;31.40;14.07;;;;;;;;;;5063767;28;20451;-69
2023/06/13 13:56:47;;;;;;;26.83;12.88;;;;;;;;;;5062408;28;20029;-68
2023/06/13 13:59:14;;;;;;;26.83;12.98;;;;;;;;;;5064680;28;20013;-68
2023/06/13 14:01:41;;;;;;;25.17;12.57;;;;;;;;;;5063906;28;20021;-67
2023/06/13 14:04:08;;;;;;;38.08;13.50;;;;;;;;;;5062882;28;20425;-68
2023/06/13 14:06:34;;;;;;;29.05;12.60;;;;;;;;;;5064629;28;20103;-68
2023/06/13 14:09:01;;;;;;;32.42;12.80;;;;;;;;;;5063864;28;20417;-68
2023/06/13 14:11:28;;;;;;;23.38;12.90;;;;;;;;;;5062501;28;20086;-68
2023/06/13 14:13:57;;;;;;;32.20;13.10;;;;;;;;;;5064202;28;20362;-68
2023/06/13 14:16:24;;;;;;;26.73;12.57;;;;;;;;;;5063793;28;20367;-69
2023/06/13 14:18:51;;;;;;;29.73;13.32;;;;;;;;;;5062469;28;20021;-68
2023/06/13 14:21:17;;;;;;;32.03;12.35;;;;;;;;;;5064043;28;20031;-69
2023/06/13 14:23:44;;;;;;;31.35;12.75;;;;;;;;;;5064134;28;20017;-68
2023/06/13 14:26:11;;;;;;;34.35;14.90;;;;;;;;;;5062631;28;20099;-69